createdAt,value
2018-11-21T00:06:55.717Z,96742.27
2018-11-21T00:17:13.898Z,96732.05
2018-11-21T00:27:31.702Z,96736.97
2018-11-21T00:37:49.699Z,96746.23
2018-11-21T00:48:07.923Z,96728.36
2018-11-21T00:58:25.582Z,96738.61
2018-11-21T01:08:43.853Z,96731.98
2018-11-21T01:19:02.531Z,96728.73
2018-11-21T01:29:20.724Z,96739.19
2018-11-21T01:39:39.252Z,96735.41
2018-11-21T01:49:57.213Z,96746.58
2018-11-21T02:00:15.487Z,96752.23
2018-11-21T02:10:33.627Z,96754.79
2018-11-21T02:20:52.881Z,96769.19
2018-11-21T02:31:10.691Z,96773.01
2018-11-21T02:41:29.075Z,96772.05
2018-11-21T02:51:46.953Z,96800.95
2018-11-21T03:02:05.294Z,96806.72
2018-11-21T03:12:24.256Z,96797.08
2018-11-21T03:22:42.112Z,96802.13
2018-11-21T03:33:00.152Z,96808.59
2018-11-21T03:43:18.403Z,96821.64
2018-11-21T03:53:36.898Z,96825.98
2018-11-21T04:03:55.122Z,96816.69
2018-11-21T04:14:13.241Z,96805.79
2018-11-21T04:24:31.212Z,96808.84
2018-11-21T04:34:49.242Z,96810.50
2018-11-21T04:45:08.262Z,96814.83
2018-11-21T04:55:26.046Z,96812.83
2018-11-21T05:05:44.477Z,96807.45
2018-11-21T05:16:03.225Z,96806.95
2018-11-21T05:26:21.411Z,96820.22
2018-11-21T05:36:39.667Z,96816.81
2018-11-21T05:46:58.217Z,96809.85
2018-11-21T05:57:16.310Z,96818.81
2018-11-21T06:07:34.256Z,96832.32
2018-11-21T06:17:52.122Z,96839.98
2018-11-21T06:28:09.987Z,96848.91
2018-11-21T06:38:28.495Z,96854.77
2018-11-21T06:48:47.102Z,96862.53
2018-11-21T06:59:05.300Z,96863.89
2018-11-21T07:09:23.260Z,96874.85
2018-11-21T07:19:41.397Z,96880.36
2018-11-21T07:29:59.341Z,96900.20
2018-11-21T07:40:17.113Z,96902.95
2018-11-21T07:50:35.207Z,96912.34
2018-11-21T08:01:21.811Z,96912.98
2018-11-21T08:11:57.387Z,96916.43
2018-11-21T08:22:33.162Z,96913.36
2018-11-21T08:32:51.276Z,96912.64
2018-11-21T08:43:09.108Z,96927.93
2018-11-21T08:53:26.790Z,96919.13
2018-11-21T09:03:45.141Z,96929.67
2018-11-21T09:14:03.061Z,96922.34
2018-11-21T09:24:21.112Z,96926.91
2018-11-21T09:34:41.922Z,96937.33
2018-11-21T09:45:00.789Z,96931.27
2018-11-21T09:55:18.944Z,96920.28
2018-11-21T10:05:37.029Z,96921.09
2018-11-21T10:15:55.034Z,96903.64
2018-11-21T10:26:12.981Z,96900.72
2018-11-21T10:36:30.790Z,96888.34
2018-11-21T10:46:48.996Z,96886.50
2018-11-21T10:57:06.970Z,96871.85
2018-11-21T11:07:47.651Z,96868.34
2018-11-21T11:18:23.175Z,96874.47
2018-11-21T11:28:58.844Z,96874.07
2018-11-21T11:39:51.236Z,96880.78
2018-11-21T11:50:33.989Z,96874.56
2018-11-21T12:01:19.912Z,96886.03
2018-11-21T12:11:55.992Z,96885.65
2018-11-21T12:22:32.781Z,96894.09
2018-11-21T12:33:15.543Z,96904.20
2018-11-21T12:43:48.465Z,96906.95
2018-11-21T12:54:25.706Z,96897.98
2018-11-21T13:05:11.246Z,96903.45
2018-11-21T13:16:07.087Z,96913.09
2018-11-21T13:26:50.439Z,96906.45
2018-11-21T13:37:27.700Z,96904.62
2018-11-21T13:48:04.913Z,96914.95
2018-11-21T13:58:24.229Z,96921.66
2018-11-21T14:08:42.157Z,96942.93
2018-11-21T14:19:00.695Z,96946.55
2018-11-21T14:29:19.144Z,96945.11
2018-11-21T14:39:37.361Z,96957.36
2018-11-21T14:49:57.971Z,96965.10
2018-11-21T15:00:18.011Z,96968.45
2018-11-21T15:10:35.985Z,96972.56
2018-11-21T15:20:56.218Z,96983.64
2018-11-21T15:31:12.061Z,96992.20
2018-11-21T15:41:31.160Z,97004.19
2018-11-21T15:51:49.229Z,97019.34
2018-11-21T16:02:07.432Z,97022.00
2018-11-21T16:12:25.926Z,97021.45
2018-11-21T16:22:44.117Z,97027.69
2018-11-21T16:33:02.176Z,97040.59
2018-11-21T16:43:20.231Z,97047.58
2018-11-21T16:53:38.388Z,97051.56
2018-11-21T17:03:57.045Z,97054.30
2018-11-21T17:14:15.205Z,97058.02
2018-11-21T17:24:32.976Z,97061.63
2018-11-21T17:34:51.764Z,97068.02
2018-11-21T17:45:10.685Z,97077.68
2018-11-21T17:55:29.882Z,97086.19
2018-11-21T18:05:47.783Z,97080.84
2018-11-21T18:16:05.704Z,97093.07
2018-11-21T18:26:24.210Z,97093.39
2018-11-21T18:36:42.504Z,97092.77
2018-11-21T18:47:00.425Z,97107.88
2018-11-21T18:57:51.014Z,97121.41
2018-11-21T19:08:09.348Z,97136.10
2018-11-21T19:18:27.706Z,97149.66
2018-11-21T19:28:45.929Z,97145.99
2018-11-21T19:39:05.704Z,97154.09
2018-11-21T19:49:23.707Z,97160.84
2018-11-21T19:59:43.588Z,97158.35
2018-11-21T20:09:59.401Z,97175.19
2018-11-21T20:20:19.178Z,97171.34
2018-11-21T20:30:38.578Z,97174.89
2018-11-21T20:40:56.250Z,97181.85
2018-11-21T20:51:14.231Z,97192.64
2018-11-21T21:01:32.051Z,97190.30
2018-11-21T21:11:50.324Z,97197.14
2018-11-21T21:22:08.798Z,97187.16
2018-11-21T21:32:26.934Z,97195.19
2018-11-21T21:42:45.747Z,97206.25
2018-11-21T21:53:04.470Z,97220.23
2018-11-21T22:03:22.985Z,97223.91
2018-11-21T22:13:40.949Z,97228.50
2018-11-21T22:23:59.708Z,97243.13
2018-11-21T22:34:18.631Z,97253.47
2018-11-21T22:44:36.326Z,97256.87
2018-11-21T22:54:54.396Z,97266.73
2018-11-21T23:05:12.763Z,97277.36
2018-11-21T23:15:31.128Z,97276.89
2018-11-21T23:25:49.197Z,97269.55
2018-11-21T23:36:07.306Z,97281.13
2018-11-21T23:46:26.033Z,97272.48
2018-11-21T23:56:44.241Z,97279.80
